createdAt,value
2018-02-24T00:00:31.966Z,65.46
2018-02-24T00:01:32.061Z,65.46
2018-02-24T00:02:31.902Z,65.74
2018-02-24T00:03:31.955Z,65.74
2018-02-24T00:04:31.836Z,65.27
2018-02-24T00:05:31.969Z,65.36
2018-02-24T00:06:31.769Z,65.46
2018-02-24T00:07:31.892Z,65.36
2018-02-24T00:08:31.710Z,65.36
2018-02-24T00:09:31.790Z,65.65
2018-02-24T00:10:31.641Z,65.74
2018-02-24T00:11:31.747Z,65.74
2018-02-24T00:12:31.577Z,65.27
2018-02-24T00:13:31.722Z,65.65
2018-02-24T00:14:31.516Z,65.65
2018-02-24T00:15:31.629Z,65.36
2018-02-24T00:16:31.442Z,65.74
2018-02-24T00:17:31.583Z,65.08
2018-02-24T00:18:31.393Z,64.89
2018-02-24T00:19:31.506Z,64.98
2018-02-24T00:20:31.345Z,65.08
2018-02-24T00:21:31.364Z,65.84
2018-02-24T00:22:31.293Z,65.84
2018-02-24T00:23:31.380Z,65.36
2018-02-24T00:24:31.183Z,65.74
2018-02-24T00:25:31.279Z,65.27
2018-02-24T00:26:31.128Z,65.17
2018-02-24T00:27:31.208Z,65.08
2018-02-24T00:28:31.057Z,65.17
2018-02-24T00:29:31.106Z,65.17
2018-02-24T00:30:30.985Z,65.27
2018-02-24T00:31:31.128Z,65.08
2018-02-24T00:32:30.933Z,65.17
2018-02-24T00:33:31.036Z,65.17
2018-02-24T00:34:30.859Z,64.98
2018-02-24T00:35:30.958Z,65.17
2018-02-24T00:36:30.798Z,65.46
2018-02-24T00:37:30.859Z,65.65
2018-02-24T00:38:30.729Z,65.65
2018-02-24T00:39:30.872Z,65.84
2018-02-24T00:40:30.676Z,64.98
2018-02-24T00:41:30.784Z,65.08
2018-02-24T00:42:30.597Z,65.93
2018-02-24T00:43:30.694Z,65.84
2018-02-24T00:44:30.535Z,65.84
2018-02-24T00:45:30.603Z,65.17
2018-02-24T00:46:30.471Z,65.27
2018-02-24T00:47:30.625Z,65.27
2018-02-24T00:48:30.400Z,65.55
2018-02-24T00:49:30.545Z,65.46
2018-02-24T00:50:30.338Z,65.74
2018-02-24T00:51:30.446Z,64.98
2018-02-24T00:52:30.274Z,64.79
2018-02-24T00:53:30.348Z,64.98
2018-02-24T00:54:30.204Z,64.98
2018-02-24T00:55:30.385Z,65.17
2018-02-24T00:56:30.155Z,64.70
2018-02-24T00:57:30.342Z,64.98
2018-02-24T00:58:30.105Z,64.98
2018-02-24T00:59:30.185Z,64.89
2018-02-24T01:00:30.012Z,64.61
2018-02-24T01:01:30.104Z,64.79
2018-02-24T01:02:29.952Z,65.55
2018-02-24T01:03:30.116Z,65.27
2018-02-24T01:04:29.878Z,65.46
2018-02-24T01:05:30.031Z,65.55
2018-02-24T01:06:29.820Z,65.27
2018-02-24T01:07:29.944Z,64.98
2018-02-24T01:08:29.750Z,65.84
2018-02-24T01:09:29.853Z,65.27
2018-02-24T01:10:29.681Z,65.55
2018-02-24T01:11:29.757Z,65.36
2018-02-24T01:12:29.616Z,65.84
2018-02-24T01:13:29.773Z,65.74
2018-02-24T01:14:29.560Z,65.55
2018-02-24T01:15:29.716Z,65.65
2018-02-24T01:16:29.489Z,65.46
2018-02-24T01:17:29.607Z,65.74
2018-02-24T01:18:29.452Z,65.55
2018-02-24T01:19:29.536Z,65.65
2018-02-24T01:20:29.354Z,66.22
2018-02-24T01:21:29.432Z,66.22
2018-02-24T01:22:29.289Z,66.12
2018-02-24T01:23:29.339Z,66.31
2018-02-24T01:24:29.222Z,65.93
2018-02-24T01:25:29.249Z,66.41
2018-02-24T01:26:29.159Z,66.41
2018-02-24T01:27:29.160Z,66.31
2018-02-24T01:28:29.093Z,66.31
2018-02-24T01:29:29.177Z,65.84
2018-02-24T01:30:29.027Z,66.41
2018-02-24T01:31:29.086Z,66.22
2018-02-24T01:32:28.957Z,67.07
2018-02-24T01:33:29.001Z,67.16
2018-02-24T01:34:28.911Z,66.78
2018-02-24T01:35:28.908Z,66.78
2018-02-24T01:36:28.834Z,66.97
2018-02-24T01:37:28.926Z,67.16
2018-02-24T01:38:28.762Z,66.88
2018-02-24T01:39:28.832Z,66.97
2018-02-24T01:40:28.696Z,66.78
2018-02-24T01:41:28.744Z,66.59
2018-02-24T01:42:28.629Z,66.78
2018-02-24T01:43:28.689Z,66.50
2018-02-24T01:44:28.561Z,66.50
2018-02-24T01:45:28.576Z,66.88
2018-02-24T01:46:28.499Z,66.97
2018-02-24T01:47:28.583Z,66.97
2018-02-24T01:48:28.436Z,67.25
2018-02-24T01:49:28.527Z,67.16
2018-02-24T01:50:28.372Z,66.97
2018-02-24T01:51:28.405Z,66.88
2018-02-24T01:52:28.300Z,66.78
2018-02-24T01:53:28.320Z,66.69
2018-02-24T01:54:28.228Z,66.97
2018-02-24T01:55:28.331Z,66.88
2018-02-24T01:56:28.176Z,67.16
2018-02-24T01:57:28.241Z,67.16
2018-02-24T01:58:28.104Z,67.16
2018-02-24T01:59:28.153Z,67.07
2018-02-24T02:00:28.044Z,67.54
2018-02-24T02:01:28.068Z,67.82
2018-02-24T02:02:27.969Z,67.54
2018-02-24T02:03:28.080Z,67.54
2018-02-24T02:04:27.904Z,67.63
2018-02-24T02:05:28.016Z,67.44
2018-02-24T02:06:27.847Z,67.63
2018-02-24T02:07:27.906Z,67.88
2018-02-24T02:08:27.772Z,67.44
2018-02-24T02:09:27.810Z,67.69
2018-02-24T02:10:27.710Z,67.69
2018-02-24T02:11:27.825Z,67.88
2018-02-24T02:12:27.644Z,67.88
2018-02-24T02:13:27.737Z,68.10
2018-02-24T02:14:27.591Z,67.79
2018-02-24T02:15:27.657Z,67.69
2018-02-24T02:16:27.510Z,67.97
2018-02-24T02:17:27.563Z,67.97
2018-02-24T02:18:27.444Z,68.26
2018-02-24T02:19:27.470Z,68.35
2018-02-24T02:20:27.375Z,68.07
2018-02-24T02:21:27.484Z,68.07
2018-02-24T02:22:27.305Z,68.16
2018-02-24T02:23:27.400Z,68.54
2018-02-24T02:24:27.243Z,67.97
2018-02-24T02:25:27.302Z,68.54
2018-02-24T02:26:27.173Z,68.63
2018-02-24T02:27:27.226Z,68.63
2018-02-24T02:28:27.100Z,68.26
2018-02-24T02:29:27.234Z,68.63
2018-02-24T02:30:27.074Z,68.73
2018-02-24T02:31:27.142Z,68.54
2018-02-24T02:32:26.982Z,67.97
2018-02-24T02:33:27.061Z,68.16
2018-02-24T02:34:26.917Z,68.44
2018-02-24T02:35:26.975Z,68.54
2018-02-24T02:36:26.844Z,68.54
2018-02-24T02:37:26.984Z,68.26
2018-02-24T02:38:26.781Z,68.35
2018-02-24T02:39:26.895Z,68.16
2018-02-24T02:40:26.714Z,67.79
2018-02-24T02:41:26.808Z,68.63
2018-02-24T02:42:26.647Z,68.54
2018-02-24T02:43:26.728Z,67.97
2018-02-24T02:44:26.580Z,68.73
2018-02-24T02:45:26.633Z,68.63
2018-02-24T02:46:26.509Z,68.63
2018-02-24T02:47:26.653Z,68.73
2018-02-24T02:48:26.470Z,68.63
2018-02-24T02:49:26.557Z,68.44
2018-02-24T02:50:26.381Z,68.92
2018-02-24T02:51:26.366Z,68.82
2018-02-24T02:52:26.314Z,68.82
2018-02-24T02:53:26.374Z,68.82
2018-02-24T02:54:26.246Z,68.73
2018-02-24T02:55:26.394Z,68.63
2018-02-24T02:56:26.184Z,68.82
2018-02-24T02:57:26.306Z,68.82
2018-02-24T02:58:26.116Z,69.30
2018-02-24T02:59:26.228Z,68.54
2018-02-24T03:00:26.048Z,69.01
2018-02-24T03:01:26.128Z,68.73
2018-02-24T03:02:25.985Z,69.39
2018-02-24T03:03:26.147Z,69.39
2018-02-24T03:04:25.916Z,68.73
2018-02-24T03:05:26.060Z,68.82
2018-02-24T03:06:25.863Z,68.73
2018-02-24T03:07:25.985Z,68.44
2018-02-24T03:08:25.786Z,68.63
2018-02-24T03:09:25.881Z,68.73
2018-02-24T03:10:25.731Z,68.82
2018-02-24T03:11:25.791Z,68.35
2018-02-24T03:12:25.657Z,68.54
2018-02-24T03:13:25.800Z,68.63
2018-02-24T03:14:25.581Z,68.44
2018-02-24T03:15:25.714Z,68.92
2018-02-24T03:16:25.527Z,68.82
2018-02-24T03:17:25.618Z,68.26
2018-02-24T03:18:25.445Z,68.82
2018-02-24T03:19:25.536Z,68.73
2018-02-24T03:20:25.387Z,68.82
2018-02-24T03:21:25.570Z,68.82
2018-02-24T03:22:25.312Z,68.82
2018-02-24T03:23:25.484Z,68.73
2018-02-24T03:24:25.248Z,68.92
2018-02-24T03:25:25.376Z,68.63
2018-02-24T03:26:25.183Z,68.63
2018-02-24T03:27:25.286Z,68.82
2018-02-24T03:28:25.115Z,68.63
2018-02-24T03:29:25.214Z,68.54
2018-02-24T03:30:25.052Z,68.63
2018-02-24T03:31:25.236Z,68.54
2018-02-24T03:32:24.986Z,68.92
2018-02-24T03:33:25.125Z,68.73
2018-02-24T03:34:24.917Z,68.82
2018-02-24T03:35:25.047Z,68.44
2018-02-24T03:36:24.880Z,68.63
2018-02-24T03:37:24.946Z,68.63
2018-02-24T03:38:24.777Z,68.82
2018-02-24T03:39:24.960Z,68.26
2018-02-24T03:40:24.735Z,68.73
2018-02-24T03:41:24.772Z,68.82
2018-02-24T03:42:24.656Z,68.63
2018-02-24T03:43:24.681Z,69.20
2018-02-24T03:44:24.574Z,69.30
2018-02-24T03:45:24.594Z,69.39
2018-02-24T03:46:24.530Z,69.01
2018-02-24T03:47:24.503Z,68.54
2018-02-24T03:48:24.450Z,68.82
2018-02-24T03:49:24.517Z,68.54
2018-02-24T03:50:24.396Z,68.82
2018-02-24T03:51:24.428Z,68.73
2018-02-24T03:52:24.316Z,68.44
2018-02-24T03:53:24.346Z,68.82
2018-02-24T03:54:24.243Z,68.54
2018-02-24T03:55:24.253Z,68.54
2018-02-24T03:56:24.180Z,69.01
2018-02-24T03:57:24.276Z,69.01
2018-02-24T03:58:24.119Z,68.82
2018-02-24T03:59:24.176Z,68.73
2018-02-24T04:00:24.044Z,68.92
2018-02-24T04:01:24.088Z,68.73
2018-02-24T04:02:23.992Z,68.82
2018-02-24T04:03:24.001Z,68.44
2018-02-24T04:04:23.920Z,68.73
2018-02-24T04:05:24.016Z,68.82
2018-02-24T04:06:23.845Z,68.54
2018-02-24T04:07:23.927Z,68.73
2018-02-24T04:08:23.783Z,68.82
2018-02-24T04:09:23.836Z,68.73
2018-02-24T04:10:23.709Z,68.54
2018-02-24T04:11:23.754Z,68.63
2018-02-24T04:12:23.642Z,68.82
2018-02-24T04:13:23.678Z,68.63
2018-02-24T04:14:23.577Z,68.54
2018-02-24T04:15:23.670Z,68.82
2018-02-24T04:16:23.542Z,68.63
2018-02-24T04:17:23.585Z,68.92
2018-02-24T04:18:23.443Z,68.92
2018-02-24T04:19:23.499Z,68.54
2018-02-24T04:20:23.368Z,68.82
2018-02-24T04:21:23.407Z,68.63
2018-02-24T04:22:23.306Z,68.73
2018-02-24T04:23:23.426Z,68.92
2018-02-24T04:24:23.238Z,68.63
2018-02-24T04:25:23.340Z,68.73
2018-02-24T04:26:23.179Z,68.73
2018-02-24T04:27:23.261Z,68.63
2018-02-24T04:28:23.104Z,68.92
2018-02-24T04:29:23.165Z,68.63
2018-02-24T04:30:23.036Z,68.73
2018-02-24T04:31:23.110Z,68.82
2018-02-24T04:32:22.968Z,68.73
2018-02-24T04:33:23.092Z,69.49
2018-02-24T04:34:22.906Z,69.49
2018-02-24T04:35:22.992Z,68.73
2018-02-24T04:36:22.837Z,68.54
2018-02-24T04:37:22.911Z,69.58
2018-02-24T04:38:22.774Z,69.58
2018-02-24T04:39:22.819Z,68.82
2018-02-24T04:40:22.701Z,68.63
2018-02-24T04:41:22.736Z,68.82
2018-02-24T04:42:22.635Z,69.67
2018-02-24T04:43:22.757Z,69.30
2018-02-24T04:44:22.563Z,69.01
2018-02-24T04:45:22.654Z,68.82
2018-02-24T04:46:22.498Z,68.63
2018-02-24T04:47:22.565Z,68.44
2018-02-24T04:48:22.433Z,68.82
2018-02-24T04:49:22.492Z,69.01
2018-02-24T04:50:22.363Z,68.92
2018-02-24T04:51:22.496Z,68.73
2018-02-24T04:52:22.291Z,68.73
2018-02-24T04:53:22.420Z,69.49
2018-02-24T04:54:22.226Z,69.49
2018-02-24T04:55:22.314Z,68.63
2018-02-24T04:56:22.190Z,68.63
2018-02-24T04:57:22.223Z,68.73
2018-02-24T04:58:22.091Z,69.39
2018-02-24T04:59:22.132Z,68.92
2018-02-24T05:00:22.032Z,68.63
2018-02-24T05:01:22.151Z,68.92
2018-02-24T05:02:21.957Z,68.82
2018-02-24T05:03:22.063Z,68.63
2018-02-24T05:04:21.889Z,68.73
2018-02-24T05:05:21.975Z,68.82
2018-02-24T05:06:21.826Z,68.82
2018-02-24T05:07:21.886Z,69.49
2018-02-24T05:08:21.754Z,69.01
2018-02-24T05:09:21.902Z,69.39
2018-02-24T05:10:21.688Z,68.54
2018-02-24T05:11:21.813Z,69.01
2018-02-24T05:12:21.627Z,69.39
2018-02-24T05:13:21.727Z,69.30
2018-02-24T05:14:21.558Z,69.39
2018-02-24T05:15:21.633Z,68.92
2018-02-24T05:16:21.484Z,69.11
2018-02-24T05:17:21.552Z,68.73
2018-02-24T05:18:21.416Z,68.73
2018-02-24T05:19:21.557Z,68.92
2018-02-24T05:20:21.350Z,69.11
2018-02-24T05:21:21.473Z,69.67
2018-02-24T05:22:21.284Z,69.11
2018-02-24T05:23:21.387Z,69.77
2018-02-24T05:24:21.216Z,68.82
2018-02-24T05:25:21.295Z,69.01
2018-02-24T05:26:21.146Z,69.39
2018-02-24T05:27:21.309Z,69.58
2018-02-24T05:28:21.087Z,68.54
2018-02-24T05:29:21.220Z,68.73
2018-02-24T05:30:21.012Z,68.63
2018-02-24T05:31:21.135Z,69.58
2018-02-24T05:32:20.945Z,68.54
2018-02-24T05:33:21.043Z,69.39
2018-02-24T05:34:20.899Z,69.11
2018-02-24T05:35:20.954Z,68.54
2018-02-24T05:36:20.808Z,69.11
2018-02-24T05:37:20.969Z,68.54
2018-02-24T05:38:20.741Z,68.54
2018-02-24T05:39:20.881Z,68.82
2018-02-24T05:40:20.676Z,68.54
2018-02-24T05:41:20.799Z,68.54
2018-02-24T05:42:20.607Z,68.35
2018-02-24T05:44:54.244Z,68.54
2018-02-24T05:45:52.266Z,68.92
2018-02-24T05:47:45.435Z,68.73
2018-02-24T05:48:45.225Z,68.16
2018-02-24T05:50:38.395Z,68.82
2018-02-24T05:51:38.373Z,68.82
2018-02-24T05:52:38.140Z,68.82
2018-02-24T05:53:38.282Z,68.44
2018-02-24T05:54:38.073Z,68.63
2018-02-24T05:55:38.195Z,68.44
2018-02-24T05:56:38.007Z,68.63
2018-02-24T05:57:38.122Z,68.82
2018-02-24T05:58:37.938Z,69.01
2018-02-24T05:59:38.120Z,68.63
2018-02-24T06:00:37.872Z,68.73
2018-02-24T06:01:38.035Z,68.73
2018-02-24T06:02:37.801Z,68.54
2018-02-24T06:03:37.840Z,68.73
2018-02-24T06:04:37.735Z,68.82
2018-02-24T06:05:37.758Z,68.82
2018-02-24T06:06:37.665Z,68.63
2018-02-24T06:07:37.709Z,68.07
2018-02-24T06:08:37.605Z,68.16
2018-02-24T06:09:37.682Z,68.44
2018-02-24T06:10:37.531Z,67.88
2018-02-24T06:11:37.594Z,67.88
2018-02-24T06:12:37.469Z,67.88
2018-02-24T06:13:37.515Z,67.88
2018-02-24T06:14:37.396Z,67.97
2018-02-24T06:15:37.421Z,67.79
2018-02-24T06:16:37.329Z,67.50
2018-02-24T06:17:37.329Z,67.50
2018-02-24T06:18:37.283Z,68.35
2018-02-24T06:19:37.454Z,67.79
2018-02-24T06:20:37.204Z,67.88
2018-02-24T06:21:37.253Z,67.50
2018-02-24T06:22:37.130Z,68.07
2018-02-24T06:23:37.173Z,67.41
2018-02-24T06:24:37.060Z,66.94
2018-02-24T06:25:37.073Z,66.75
2018-02-24T06:26:36.998Z,66.84
2018-02-24T06:27:37.085Z,66.94
2018-02-24T06:28:36.928Z,66.94
2018-02-24T06:29:36.998Z,67.03
2018-02-24T06:30:36.859Z,67.32
2018-02-24T06:31:36.921Z,66.75
2018-02-24T06:32:36.791Z,66.84
2018-02-24T06:33:36.823Z,67.22
2018-02-24T06:34:36.733Z,67.03
2018-02-24T06:35:36.733Z,67.13
2018-02-24T06:36:36.664Z,67.13
2018-02-24T06:37:36.748Z,67.13
2018-02-24T06:38:36.588Z,66.84
2018-02-24T06:39:36.675Z,66.75
2018-02-24T06:40:36.532Z,67.22
2018-02-24T06:41:36.569Z,66.84
2018-02-24T06:42:36.454Z,67.22
2018-02-24T06:43:36.481Z,66.75
2018-02-24T06:44:36.385Z,66.84
2018-02-24T06:45:36.498Z,66.65
2018-02-24T06:46:36.319Z,66.94
2018-02-24T06:47:36.406Z,66.94
2018-02-24T06:48:36.252Z,67.03
2018-02-24T06:49:36.319Z,66.75
2018-02-24T06:50:36.183Z,66.84
2018-02-24T06:51:36.231Z,66.94
2018-02-24T06:52:36.118Z,66.47
2018-02-24T06:53:36.139Z,65.99
2018-02-24T06:54:36.053Z,66.28
2018-02-24T06:55:36.150Z,66.28
2018-02-24T06:56:35.999Z,66.18
2018-02-24T06:57:36.068Z,66.09
2018-02-24T06:58:35.915Z,66.18
2018-02-24T06:59:35.979Z,66.28
2018-02-24T07:00:35.854Z,66.94
2018-02-24T07:01:35.891Z,66.28
2018-02-24T07:02:35.779Z,66.47
2018-02-24T07:03:35.902Z,66.09
2018-02-24T07:04:35.711Z,65.80
2018-02-24T07:05:35.817Z,66.28
2018-02-24T07:06:35.677Z,66.28
2018-02-24T07:07:35.655Z,66.28
2018-02-24T07:08:35.594Z,66.18
2018-02-24T07:09:35.670Z,66.28
2018-02-24T07:10:35.516Z,65.99
2018-02-24T07:11:35.497Z,65.52
2018-02-24T07:12:35.452Z,65.42
2018-02-24T07:13:35.407Z,65.14
2018-02-24T07:14:35.482Z,65.33
2018-02-24T07:15:35.351Z,65.33
2018-02-24T07:16:35.406Z,64.95
2018-02-24T07:17:35.353Z,65.05
2018-02-24T07:18:35.311Z,65.42
2018-02-24T07:19:35.227Z,65.61
2018-02-24T07:20:35.305Z,65.71
2018-02-24T07:21:35.143Z,65.52
2018-02-24T07:22:35.256Z,65.71
2018-02-24T07:23:35.106Z,65.80
2018-02-24T07:24:35.164Z,65.61
2018-02-24T07:25:35.005Z,65.14
2018-02-24T07:26:35.046Z,65.14
2018-02-24T07:27:34.937Z,65.80
2018-02-24T07:28:34.990Z,65.14
2018-02-24T07:29:34.873Z,64.86
2018-02-24T07:30:34.882Z,64.58
2018-02-24T07:31:34.850Z,65.14
2018-02-24T07:32:34.890Z,64.98
2018-02-24T07:33:34.734Z,64.86
2018-02-24T07:34:34.789Z,64.42
2018-02-24T07:35:34.669Z,64.95
2018-02-24T07:36:34.732Z,64.32
2018-02-24T07:37:34.614Z,64.23
2018-02-24T07:38:34.616Z,64.23
2018-02-24T07:39:34.553Z,64.04
2018-02-24T07:40:34.528Z,64.61
2018-02-24T07:41:34.510Z,63.76
2018-02-24T07:42:34.540Z,63.95
2018-02-24T07:43:34.406Z,63.48
2018-02-24T07:44:34.453Z,63.85
2018-02-24T07:45:34.335Z,63.67
2018-02-24T07:46:34.361Z,63.19
2018-02-24T07:47:34.310Z,63.38
2018-02-24T07:48:34.325Z,63.29
2018-02-24T07:49:34.214Z,62.91
2018-02-24T07:50:34.192Z,63.10
2018-02-24T07:51:34.140Z,63.48
2018-02-24T07:52:34.202Z,63.00
2018-02-24T07:53:34.096Z,63.29
2018-02-24T07:54:35.167Z,62.81
2018-02-24T07:55:34.023Z,63.29
2018-02-24T07:56:34.043Z,62.62
2018-02-24T07:57:33.964Z,62.44
2018-02-24T07:58:33.944Z,62.06
2018-02-24T07:59:33.871Z,62.15
2018-02-24T08:00:33.950Z,61.96
2018-02-24T08:01:33.812Z,62.06
2018-02-24T08:02:33.866Z,61.77
2018-02-24T08:03:33.738Z,62.34
2018-02-24T08:04:33.774Z,61.96
2018-02-24T08:05:33.667Z,61.87
2018-02-24T08:06:33.694Z,61.77
2018-02-24T08:07:33.709Z,61.77
2018-02-24T08:08:33.667Z,61.68
2018-02-24T08:09:33.591Z,61.68
2018-02-24T08:10:33.631Z,61.68
2018-02-24T08:11:33.492Z,61.77
2018-02-24T08:12:33.522Z,61.87
2018-02-24T08:13:33.403Z,61.77
2018-02-24T08:14:33.437Z,61.58
2018-02-24T08:15:33.335Z,61.11
2018-02-24T08:16:33.353Z,61.40
2018-02-24T08:17:33.292Z,60.93
2018-02-24T08:18:33.359Z,60.83
2018-02-24T08:19:33.201Z,60.83
2018-02-24T08:20:33.297Z,60.86
2018-02-24T08:21:33.156Z,61.05
2018-02-24T08:22:33.173Z,61.05
2018-02-24T08:23:33.077Z,61.15
2018-02-24T08:24:33.090Z,60.67
2018-02-24T08:25:33.063Z,60.67
2018-02-24T08:26:33.024Z,60.96
2018-02-24T08:27:32.939Z,60.39
2018-02-24T08:28:33.010Z,59.73
2018-02-24T08:29:32.883Z,60.01
2018-02-24T08:30:32.930Z,59.73
2018-02-24T08:31:32.862Z,59.73
2018-02-24T08:32:32.847Z,59.92
2018-02-24T08:33:32.746Z,59.73
2018-02-24T08:34:32.780Z,60.49
2018-02-24T08:35:32.673Z,59.63
2018-02-24T08:36:32.673Z,60.01
2018-02-24T08:37:32.647Z,59.73
2018-02-24T08:38:32.726Z,59.54
2018-02-24T08:39:32.542Z,58.97
2018-02-24T08:40:32.629Z,58.78
2018-02-24T08:41:32.479Z,58.59
2018-02-24T08:42:32.496Z,57.74
2018-02-24T08:43:32.402Z,58.31
2018-02-24T08:44:32.455Z,58.12
2018-02-24T08:45:32.357Z,59.06
2018-02-24T08:46:32.452Z,58.97
2018-02-24T08:47:32.272Z,58.50
2018-02-24T08:48:33.269Z,58.22
2018-02-24T08:49:32.274Z,58.31
2018-02-24T08:50:32.244Z,57.55
2018-02-24T08:51:32.259Z,57.58
2018-02-24T08:52:32.155Z,57.11
2018-02-24T08:53:32.100Z,57.20
2018-02-24T08:54:32.071Z,57.30
2018-02-24T08:55:32.028Z,57.30
2018-02-24T08:56:32.087Z,57.11
2018-02-24T08:57:32.038Z,56.82
2018-02-24T08:58:31.999Z,56.54
2018-02-24T08:59:31.960Z,56.82
2018-02-24T09:00:32.099Z,57.49
2018-02-24T09:01:31.842Z,57.39
2018-02-24T09:02:31.861Z,56.73
2018-02-24T09:03:31.762Z,56.92
2018-02-24T09:04:31.838Z,56.45
2018-02-24T09:05:31.694Z,56.73
2018-02-24T09:06:31.752Z,56.73
2018-02-24T09:07:31.623Z,55.98
2018-02-24T09:08:31.655Z,55.60
2018-02-24T09:09:31.572Z,55.60
2018-02-24T09:10:31.566Z,55.79
2018-02-24T09:11:31.504Z,56.07
2018-02-24T09:12:31.597Z,56.16
2018-02-24T09:13:31.436Z,56.07
2018-02-24T09:14:31.498Z,55.79
2018-02-24T09:15:31.364Z,55.82
2018-02-24T09:16:31.409Z,55.72
2018-02-24T09:17:31.314Z,55.72
2018-02-24T09:18:31.319Z,55.44
2018-02-24T09:19:31.239Z,55.63
2018-02-24T09:20:31.211Z,54.30
2018-02-24T09:21:31.235Z,54.21
2018-02-24T09:22:31.212Z,54.11
2018-02-24T09:23:31.153Z,54.21
2018-02-24T09:24:31.157Z,54.30
2018-02-24T09:25:31.214Z,54.21
2018-02-24T09:26:31.095Z,54.21
2018-02-24T09:27:31.137Z,54.90
2018-02-24T09:28:30.992Z,54.80
2018-02-24T09:29:31.017Z,53.59
2018-02-24T09:30:30.919Z,52.29
2018-02-24T09:31:30.996Z,50.24
2018-02-24T09:32:30.897Z,48.96
2018-02-24T09:33:30.919Z,46.23
2018-02-24T09:34:30.840Z,43.69
2018-02-24T09:35:30.879Z,42.00
2018-02-24T09:36:30.758Z,40.86
2018-02-24T09:37:30.839Z,38.41
2018-02-24T09:38:30.764Z,37.93
2018-02-24T09:39:30.697Z,38.05
2018-02-24T09:40:30.622Z,37.88
2018-02-24T09:41:30.684Z,37.04
2018-02-24T09:42:30.602Z,35.89
2018-02-24T09:43:30.698Z,35.04
2018-02-24T09:44:30.517Z,34.39
2018-02-24T09:45:30.624Z,33.82
2018-02-24T09:46:30.465Z,33.06
2018-02-24T09:47:30.644Z,32.10
2018-02-24T09:48:30.427Z,31.92
2018-02-24T09:49:30.405Z,31.84
2018-02-24T09:50:30.469Z,31.55
2018-02-24T09:51:30.522Z,31.95
2018-02-24T09:52:30.427Z,31.95
2018-02-24T09:53:30.447Z,31.58
2018-02-24T09:54:30.306Z,30.72
2018-02-24T09:55:30.252Z,30.34
2018-02-24T09:56:30.233Z,29.67
2018-02-24T09:57:30.365Z,29.27
2018-02-24T09:58:30.182Z,28.61
2018-02-24T09:59:30.195Z,29.47
2018-02-24T10:00:30.112Z,29.37
2018-02-24T10:01:30.262Z,28.70
2018-02-24T10:02:30.096Z,28.43
2018-02-24T10:03:30.095Z,28.24
2018-02-24T10:04:30.117Z,28.53
2018-02-24T10:05:30.134Z,28.43
2018-02-24T10:06:30.099Z,28.05
2018-02-24T10:07:30.079Z,28.16
2018-02-24T10:08:30.036Z,27.30
2018-02-24T10:09:30.078Z,26.44
2018-02-24T10:10:29.925Z,27.11
2018-02-24T10:11:29.999Z,26.15
2018-02-24T10:12:29.937Z,25.87
2018-02-24T10:13:30.059Z,26.15
2018-02-24T10:14:29.898Z,26.54
2018-02-24T10:15:29.982Z,27.31
2018-02-24T10:16:29.844Z,27.03
2018-02-24T10:17:29.923Z,26.29
2018-02-24T10:18:29.753Z,25.13
2018-02-24T10:19:29.862Z,24.65
2018-02-24T10:20:29.765Z,24.55
2018-02-24T10:21:29.843Z,25.03
2018-02-24T10:22:29.786Z,25.04
2018-02-24T10:23:29.767Z,25.06
2018-02-24T10:24:29.666Z,24.77
2018-02-24T10:25:29.788Z,23.91
2018-02-24T10:26:29.649Z,24.21
2018-02-24T10:27:29.686Z,23.65
2018-02-24T10:28:29.607Z,22.77
2018-02-24T10:29:29.693Z,22.97
2018-02-24T10:30:29.558Z,22.67
2018-02-24T10:31:29.590Z,22.94
2018-02-24T10:32:29.520Z,23.04
2018-02-24T10:33:29.653Z,23.72
2018-02-24T10:34:29.512Z,23.91
2018-02-24T10:35:29.692Z,23.92
2018-02-24T10:36:29.655Z,23.83
2018-02-24T10:37:29.495Z,22.97
2018-02-24T10:38:29.892Z,22.68
2018-02-24T10:39:29.554Z,22.01
2018-02-24T10:40:29.576Z,21.91
2018-02-24T10:41:29.434Z,22.77
2018-02-24T10:42:29.550Z,22.30
2018-02-24T10:43:29.346Z,22.30
2018-02-24T10:44:29.467Z,22.30
2018-02-24T10:45:29.312Z,21.33
2018-02-24T10:46:29.476Z,21.80
2018-02-24T10:47:29.280Z,22.09
2018-02-24T10:48:29.395Z,22.00
2018-02-24T10:49:29.242Z,22.20
2018-02-24T10:50:29.319Z,21.92
2018-02-24T10:51:29.222Z,21.64
2018-02-24T10:52:29.307Z,21.53
2018-02-24T10:53:29.187Z,21.73
2018-02-24T10:54:29.237Z,21.45
2018-02-24T10:55:29.150Z,21.45
2018-02-24T10:56:29.234Z,21.73
2018-02-24T10:57:29.168Z,21.45
2018-02-24T10:58:29.167Z,21.65
2018-02-24T10:59:29.113Z,21.65
2018-02-24T11:00:29.197Z,21.75
2018-02-24T11:01:29.071Z,20.98
2018-02-24T11:02:29.126Z,19.92
2018-02-24T11:03:29.069Z,20.51
2018-02-24T11:04:29.115Z,20.61
2018-02-24T11:05:29.049Z,20.61
2018-02-24T11:06:29.171Z,20.14
2018-02-24T11:07:29.071Z,20.23
2018-02-24T11:08:29.051Z,19.46
2018-02-24T11:09:29.051Z,18.89
2018-02-24T11:10:29.131Z,19.08
2018-02-24T11:11:28.972Z,19.67
2018-02-24T11:12:29.057Z,18.89
2018-02-24T11:13:29.014Z,19.75
2018-02-24T11:14:29.071Z,20.53
2018-02-24T11:15:28.914Z,20.05
2018-02-24T11:16:29.035Z,19.47
2018-02-24T11:17:28.864Z,19.57
2018-02-24T11:18:29.015Z,19.18
2018-02-24T11:19:28.861Z,19.85
2018-02-24T11:20:29.002Z,19.38
2018-02-24T11:21:28.860Z,18.79
2018-02-24T11:22:28.859Z,19.18
2018-02-24T11:23:28.838Z,19.46
2018-02-24T11:24:28.900Z,18.68
2018-02-24T11:25:28.819Z,20.20
2018-02-24T11:26:28.939Z,21.15
2018-02-24T11:27:28.736Z,20.87
2018-02-24T11:28:28.882Z,20.98
2018-02-24T11:29:28.704Z,21.07
2018-02-24T11:30:28.800Z,21.36
2018-02-24T11:31:28.741Z,21.06
2018-02-24T11:32:28.722Z,21.06
2018-02-24T11:33:28.679Z,21.35
2018-02-24T11:34:28.745Z,21.55
2018-02-24T11:35:28.645Z,21.17
2018-02-24T11:36:28.787Z,21.66
2018-02-24T11:37:28.548Z,20.89
2018-02-24T11:38:28.650Z,20.78
2018-02-24T11:39:28.574Z,19.92
2018-02-24T11:40:28.671Z,21.06
2018-02-24T11:41:28.589Z,20.19
2018-02-24T11:42:28.648Z,20.78
2018-02-24T11:43:28.504Z,21.15
2018-02-24T11:44:28.611Z,20.85
2018-02-24T11:45:28.451Z,21.53
2018-02-24T11:46:28.651Z,22.58
2018-02-24T11:47:28.473Z,22.77
2018-02-24T11:48:28.482Z,22.77
2018-02-24T11:49:28.360Z,23.54
2018-02-24T11:50:28.534Z,23.82
2018-02-24T11:51:28.339Z,24.28
2018-02-24T11:52:28.409Z,24.57
2018-02-24T11:53:28.317Z,23.99
2018-02-24T11:54:28.413Z,24.19
2018-02-24T11:55:28.315Z,24.10
2018-02-24T11:56:28.459Z,23.90
2018-02-24T11:57:28.256Z,24.76
2018-02-24T11:58:28.275Z,25.04
2018-02-24T11:59:28.267Z,26.00
2018-02-24T12:00:28.347Z,25.33
2018-02-24T12:01:28.192Z,26.19
2018-02-24T12:02:28.300Z,25.90
2018-02-24T12:03:28.216Z,25.43
2018-02-24T12:04:28.366Z,25.15
2018-02-24T12:05:28.169Z,24.57
2018-02-24T12:06:28.359Z,24.66
2018-02-24T12:07:28.097Z,24.65
2018-02-24T12:08:30.288Z,24.64
2018-02-24T12:09:28.124Z,25.59
2018-02-24T12:10:28.243Z,26.06
2018-02-24T12:11:28.201Z,27.01
2018-02-24T12:12:28.124Z,27.98
2018-02-24T12:13:28.352Z,28.08
2018-02-24T12:14:28.153Z,28.36
2018-02-24T12:15:27.986Z,28.84
2018-02-24T12:16:28.056Z,28.08
2018-02-24T12:17:27.942Z,28.94
2018-02-24T12:18:28.075Z,29.05
2018-02-24T12:19:27.920Z,28.47
2018-02-24T12:20:28.090Z,28.94
2018-02-24T12:21:27.950Z,29.13
2018-02-24T12:22:27.988Z,29.51
2018-02-24T12:23:27.897Z,28.84
2018-02-24T12:24:28.017Z,28.84
2018-02-24T12:25:27.830Z,29.72
2018-02-24T12:26:28.035Z,29.14
2018-02-24T12:27:27.800Z,29.24
2018-02-24T12:28:27.933Z,28.57
2018-02-24T12:29:27.878Z,28.94
2018-02-24T12:30:27.948Z,29.41
2018-02-24T12:31:27.755Z,29.13
2018-02-24T12:32:27.869Z,29.80
2018-02-24T12:33:27.713Z,29.70
2018-02-24T12:34:27.867Z,29.30
2018-02-24T12:35:27.699Z,30.55
2018-02-24T12:36:27.773Z,31.13
2018-02-24T12:37:27.659Z,30.56
2018-02-24T12:38:27.798Z,30.94
2018-02-24T12:39:27.624Z,30.75
2018-02-24T12:40:27.880Z,30.85
2018-02-24T12:41:27.591Z,29.99
2018-02-24T12:42:27.661Z,29.80
2018-02-24T12:43:27.567Z,30.18
2018-02-24T12:44:27.732Z,30.85
2018-02-24T12:45:27.545Z,30.85
2018-02-24T12:46:27.642Z,30.26
2018-02-24T12:47:27.502Z,29.97
2018-02-24T12:48:27.671Z,30.15
2018-02-24T12:49:27.471Z,31.40
2018-02-24T12:50:27.580Z,31.10
2018-02-24T12:51:27.441Z,31.48
2018-02-24T12:52:27.588Z,31.68
2018-02-24T12:53:27.408Z,30.71
2018-02-24T12:54:27.691Z,31.85
2018-02-24T12:55:27.431Z,30.88